Phoenix, Arizona
Current Conditions -  °F | °C
As of 3:51 AM on Friday 31 Oct 2014 (Local Time) from KPHX Reporting Station
Broken Clouds Broken Clouds  
Wind Chill: 21°   Ceiling: 22000
Heat Index: 21°   Visibility: 10mi
Dew Point:   Wind: 7mph
Humidity: 38%   Direction: 130°SE
Pressure: 29.89"   Gusts: NA
Location:  33.45°N, 112.08°W
Report Text: KPHX 311051Z 13006KT 10SM BKN220 21/06 A2989 RMK AO2 SLP107 T02110061
Loading
Personal Weather Stations






























Interactive Weather Map New forecast layout! Learn more

10-Day Weather Forecast

Advertisements
Track Severe Weather on mobile